createdAt,value
2023-02-24T00:01:28.556Z,13.90
2023-02-24T00:06:44.008Z,13.23
2023-02-24T00:09:35.205Z,12.30
2023-02-24T00:12:26.722Z,13.32
2023-02-24T00:14:59.288Z,13.70
2023-02-24T00:17:33.220Z,12.50
2023-02-24T00:20:02.060Z,14.02
2023-02-24T00:22:34.732Z,13.82
2023-02-24T00:25:04.020Z,13.77
2023-02-24T00:27:51.937Z,15.43
2023-02-24T00:30:33.825Z,14.50
2023-02-24T00:33:05.910Z,14.48
2023-02-24T00:35:37.197Z,15.02
2023-02-24T00:38:03.804Z,14.65
2023-02-24T00:40:39.311Z,15.45
2023-02-24T00:43:23.042Z,13.52
2023-02-24T00:45:53.656Z,15.52
2023-02-24T00:48:29.712Z,14.63
2023-02-24T00:51:00.964Z,14.27
2023-02-24T00:53:32.313Z,15.13
2023-02-24T00:56:18.417Z,14.30
2023-02-24T00:58:51.099Z,15.30
2023-02-24T01:01:27.641Z,14.27
2023-02-24T01:03:57.145Z,15.80
2023-02-24T01:06:29.349Z,14.23
2023-02-24T01:09:09.793Z,15.25
2023-02-24T01:12:03.168Z,15.48
2023-02-24T01:14:37.444Z,14.90
2023-02-24T01:17:19.510Z,14.75
2023-02-24T01:19:57.453Z,15.23
2023-02-24T01:22:29.631Z,15.35
2023-02-24T01:25:30.673Z,15.13
2023-02-24T01:28:00.002Z,13.98
2023-02-24T01:30:30.445Z,15.85
2023-02-24T01:32:59.420Z,14.57
2023-02-24T01:35:30.782Z,16.13
2023-02-24T01:38:06.443Z,16.17
2023-02-24T01:40:48.675Z,15.57
2023-02-24T01:46:05.459Z,13.82
2023-02-24T01:48:34.444Z,16.13
2023-02-24T01:51:03.338Z,15.35
2023-02-24T01:53:30.224Z,14.57
2023-02-24T01:56:02.162Z,15.48
2023-02-24T01:58:30.388Z,16.58
2023-02-24T02:01:09.288Z,15.30
2023-02-24T02:03:44.733Z,15.13
2023-02-24T02:06:19.769Z,14.68
2023-02-24T02:08:53.574Z,14.65
2023-02-24T02:11:35.142Z,15.07
2023-02-24T02:14:23.150Z,14.75
2023-02-24T02:17:17.974Z,15.45
2023-02-24T02:19:47.354Z,14.13
2023-02-24T02:22:49.312Z,14.30
2023-02-24T02:25:29.264Z,16.33
2023-02-24T02:28:11.036Z,16.05
2023-02-24T02:30:56.330Z,16.20
2023-02-24T02:33:49.971Z,15.27
2023-02-24T02:36:19.513Z,15.32
2023-02-24T02:39:00.944Z,13.90
2023-02-24T02:42:22.343Z,16.17
2023-02-24T02:45:10.960Z,14.32
2023-02-24T02:48:15.207Z,16.00
2023-02-24T02:53:59.985Z,14.15
2023-02-24T03:00:21.819Z,14.75
2023-02-24T03:03:02.537Z,15.07
2023-02-24T03:05:55.593Z,15.68
2023-02-24T03:08:28.499Z,15.60
2023-02-24T03:11:02.419Z,14.25
2023-02-24T03:13:44.630Z,16.77
2023-02-24T03:16:13.763Z,14.30
2023-02-24T03:19:03.967Z,16.75
2023-02-24T03:21:33.590Z,15.23
2023-02-24T03:24:10.969Z,15.60
2023-02-24T03:26:50.147Z,17.08
2023-02-24T03:29:48.985Z,16.15
2023-02-24T03:36:07.045Z,15.80
2023-02-24T03:38:53.980Z,16.95
2023-02-24T03:41:31.543Z,17.40
2023-02-24T03:44:07.308Z,16.08
2023-02-24T03:46:42.646Z,16.85
2023-02-24T03:49:17.049Z,15.93
2023-02-24T03:52:03.486Z,16.85
2023-02-24T03:55:17.526Z,16.65
2023-02-24T03:58:06.218Z,14.57
2023-02-24T04:01:14.078Z,13.80
2023-02-24T04:04:07.033Z,15.10
2023-02-24T04:06:47.375Z,14.90
2023-02-24T04:09:37.506Z,14.52
2023-02-24T04:12:18.603Z,16.40
2023-02-24T04:15:25.372Z,14.65
2023-02-24T04:18:16.462Z,14.30
2023-02-24T04:21:20.439Z,14.80
2023-02-24T04:23:47.961Z,14.48
2023-02-24T04:26:20.269Z,14.55
2023-02-24T04:28:59.649Z,16.13
2023-02-24T04:34:47.731Z,16.13
2023-02-24T04:37:30.862Z,13.60
2023-02-24T04:40:30.335Z,14.88
2023-02-24T04:43:05.448Z,16.13
2023-02-24T04:45:40.550Z,14.10
2023-02-24T04:48:19.883Z,14.35
2023-02-24T04:51:11.834Z,15.82
2023-02-24T04:53:49.115Z,13.23
2023-02-24T04:56:31.817Z,14.02
2023-02-24T04:59:21.729Z,14.75
2023-02-24T05:04:53.508Z,14.00
2023-02-24T05:07:22.807Z,14.38
2023-02-24T05:09:58.246Z,14.63
2023-02-24T05:12:31.949Z,16.63
2023-02-24T05:15:18.923Z,13.43
2023-02-24T05:17:56.288Z,15.40
2023-02-24T05:26:32.211Z,14.88
2023-02-24T05:31:42.651Z,14.32
2023-02-24T05:34:26.883Z,16.08
2023-02-24T05:37:21.424Z,17.17
2023-02-24T05:43:15.394Z,13.05
2023-02-24T05:45:48.282Z,11.13
2023-02-24T05:48:18.764Z,14.57
2023-02-24T05:50:58.018Z,13.50
2023-02-24T05:53:25.400Z,12.98
2023-02-24T05:56:13.980Z,14.63
2023-02-24T05:58:59.192Z,13.30
2023-02-24T06:01:43.924Z,15.15
2023-02-24T06:04:36.430Z,13.90
2023-02-24T06:07:28.162Z,15.93
2023-02-24T06:10:11.586Z,12.30
2023-02-24T06:13:01.342Z,13.55
2023-02-24T06:15:39.148Z,13.13
2023-02-24T06:18:07.038Z,14.95
2023-02-24T06:20:56.334Z,14.60
2023-02-24T06:23:31.196Z,15.52
2023-02-24T06:26:19.558Z,14.48
2023-02-24T06:28:48.076Z,14.45
2023-02-24T06:31:18.306Z,14.57
2023-02-24T06:34:04.640Z,15.23
2023-02-24T06:36:53.784Z,16.30
2023-02-24T06:39:22.588Z,13.05
2023-02-24T06:44:58.688Z,14.25
2023-02-24T06:48:08.505Z,14.13
2023-02-24T06:50:41.987Z,16.42
2023-02-24T06:53:33.526Z,13.68
2023-02-24T06:56:07.099Z,16.50
2023-02-24T06:58:37.817Z,16.42
2023-02-24T07:01:12.718Z,13.40
2023-02-24T07:03:47.486Z,13.45
2023-02-24T07:06:28.212Z,13.75
2023-02-24T07:09:02.317Z,15.10
2023-02-24T07:11:46.949Z,14.52
2023-02-24T07:14:42.788Z,14.95
2023-02-24T07:17:22.400Z,15.30
2023-02-24T07:20:02.131Z,15.10
2023-02-24T07:22:38.224Z,12.93
2023-02-24T07:25:33.342Z,14.25
2023-02-24T07:28:17.104Z,14.98
2023-02-24T07:30:51.461Z,14.07
2023-02-24T07:33:27.514Z,15.20
2023-02-24T07:36:08.941Z,15.38
2023-02-24T07:38:39.736Z,13.98
2023-02-24T07:41:12.361Z,14.93
2023-02-24T07:43:40.632Z,15.38
2023-02-24T07:46:15.986Z,12.15
2023-02-24T07:48:42.760Z,15.77
2023-02-24T07:51:14.739Z,14.55
2023-02-24T07:53:44.102Z,13.50
2023-02-24T07:56:18.755Z,15.50
2023-02-24T07:58:51.813Z,16.15
2023-02-24T08:01:24.895Z,13.82
2023-02-24T08:04:07.977Z,15.38
2023-02-24T08:06:45.467Z,15.55
2023-02-24T08:09:20.174Z,15.88
2023-02-24T08:11:55.154Z,15.82
2023-02-24T08:14:34.872Z,15.60
2023-02-24T08:17:05.349Z,16.45
2023-02-24T08:19:33.475Z,16.55
2023-02-24T08:22:19.301Z,16.48
2023-02-24T08:24:50.094Z,15.38
2023-02-24T08:27:21.833Z,17.25
2023-02-24T08:29:59.962Z,14.88
2023-02-24T08:32:45.006Z,16.30
2023-02-24T08:35:17.029Z,16.75
2023-02-24T08:37:48.271Z,17.85
2023-02-24T08:40:49.661Z,16.98
2023-02-24T08:43:24.949Z,15.93
2023-02-24T08:45:59.345Z,16.08
2023-02-24T08:48:38.183Z,14.40
2023-02-24T08:51:09.838Z,15.90
2023-02-24T08:53:40.435Z,17.40
2023-02-24T08:56:11.497Z,16.73
2023-02-24T08:58:49.383Z,16.52
2023-02-24T09:01:24.132Z,15.63
2023-02-24T09:03:54.430Z,14.73
2023-02-24T09:06:25.837Z,15.38
2023-02-24T09:09:15.353Z,14.63
2023-02-24T09:11:44.689Z,15.98
2023-02-24T09:14:25.988Z,16.05
2023-02-24T09:17:02.466Z,14.75
2023-02-24T09:19:51.920Z,18.05
2023-02-24T09:22:41.828Z,17.52
2023-02-24T09:25:40.590Z,20.55
2023-02-24T09:28:24.957Z,16.45
2023-02-24T09:31:00.306Z,16.50
2023-02-24T09:33:41.152Z,17.70
2023-02-24T09:36:13.141Z,17.23
2023-02-24T09:39:01.238Z,18.23
2023-02-24T09:41:54.836Z,17.38
2023-02-24T09:44:36.546Z,15.82
2023-02-24T09:47:13.429Z,18.27
2023-02-24T09:49:59.044Z,15.75
2023-02-24T09:52:43.629Z,16.95
2023-02-24T09:55:25.082Z,19.33
2023-02-24T09:58:18.956Z,16.90
2023-02-24T10:01:20.949Z,15.70
2023-02-24T10:04:14.884Z,16.65
2023-02-24T10:06:50.233Z,17.33
2023-02-24T10:09:35.860Z,16.75
2023-02-24T10:12:11.736Z,17.40
2023-02-24T10:15:19.101Z,18.15
2023-02-24T10:17:58.137Z,17.40
2023-02-24T10:20:31.222Z,17.67
2023-02-24T10:23:09.719Z,19.40
2023-02-24T10:25:53.775Z,18.02
2023-02-24T10:28:51.062Z,19.70
2023-02-24T10:31:46.056Z,19.05
2023-02-24T10:34:20.857Z,17.65
2023-02-24T10:36:50.342Z,17.77
2023-02-24T10:39:21.098Z,16.80
2023-02-24T10:42:15.645Z,18.23
2023-02-24T10:45:02.237Z,18.38
2023-02-24T10:47:33.165Z,16.17
2023-02-24T10:50:12.582Z,17.80
2023-02-24T10:52:56.497Z,18.75
2023-02-24T10:55:45.920Z,17.33
2023-02-24T10:58:27.837Z,13.38
2023-02-24T11:01:20.937Z,14.63
2023-02-24T11:04:23.929Z,13.68
2023-02-24T11:09:27.793Z,16.38
2023-02-24T11:12:31.539Z,17.77
2023-02-24T11:15:23.225Z,16.48
2023-02-24T11:17:56.987Z,19.50
2023-02-24T11:20:48.359Z,16.77
2023-02-24T11:23:29.284Z,16.13
2023-02-24T11:26:00.965Z,17.15
2023-02-24T11:28:59.545Z,16.95
2023-02-24T11:31:44.428Z,15.75
2023-02-24T11:34:18.775Z,15.40
2023-02-24T11:37:14.470Z,16.70
2023-02-24T11:40:01.535Z,15.38
2023-02-24T11:42:52.403Z,14.07
2023-02-24T11:45:40.156Z,17.05
2023-02-24T11:48:16.030Z,17.40
2023-02-24T11:51:20.102Z,16.35
2023-02-24T11:54:01.951Z,17.20
2023-02-24T11:56:35.055Z,17.75
2023-02-24T11:59:14.038Z,15.60
2023-02-24T12:01:59.192Z,17.48
2023-02-24T12:04:46.574Z,16.40
2023-02-24T12:07:12.972Z,16.17
2023-02-24T12:09:54.909Z,13.25
2023-02-24T12:12:32.276Z,16.17
2023-02-24T12:15:03.588Z,14.85
2023-02-24T12:17:36.688Z,15.80
2023-02-24T12:20:14.217Z,16.25
2023-02-24T12:22:51.491Z,15.75
2023-02-24T12:25:23.988Z,13.85
2023-02-24T12:28:11.649Z,14.18
2023-02-24T12:30:49.915Z,14.20
2023-02-24T12:33:43.691Z,14.77
2023-02-24T12:36:15.699Z,13.43
2023-02-24T12:41:29.842Z,12.32
2023-02-24T12:44:17.781Z,12.52
2023-02-24T12:46:52.503Z,11.13
2023-02-24T12:49:21.803Z,12.88
2023-02-24T12:52:13.174Z,11.63
2023-02-24T12:54:53.581Z,13.48
2023-02-24T12:57:31.011Z,11.75
2023-02-24T13:00:06.485Z,12.32
2023-02-24T13:02:56.964Z,19.92
2023-02-24T13:05:43.164Z,11.13
2023-02-24T13:08:45.731Z,10.18
2023-02-24T13:11:27.514Z,9.60
2023-02-24T13:14:16.541Z,10.18
2023-02-24T13:16:43.157Z,10.20
2023-02-24T13:19:29.837Z,9.57
2023-02-24T13:22:06.317Z,9.85
2023-02-24T13:24:33.668Z,9.32
2023-02-24T13:27:13.243Z,11.32
2023-02-24T13:30:20.005Z,12.23
2023-02-24T13:33:06.602Z,12.02
2023-02-24T13:35:37.056Z,11.05
2023-02-24T13:38:32.806Z,11.68
2023-02-24T13:41:30.048Z,11.23
2023-02-24T13:44:19.963Z,11.32
2023-02-24T13:47:28.943Z,11.27
2023-02-24T13:50:10.779Z,9.25
2023-02-24T13:52:43.086Z,9.80
2023-02-24T13:55:30.655Z,10.25
2023-02-24T13:58:08.750Z,9.70
2023-02-24T14:00:53.956Z,8.77
2023-02-24T14:03:26.814Z,9.05
2023-02-24T14:05:53.592Z,9.38
2023-02-24T14:08:41.134Z,9.20
2023-02-24T14:11:21.331Z,8.35
2023-02-24T14:13:56.658Z,7.82
2023-02-24T14:16:35.889Z,7.90
2023-02-24T14:19:03.631Z,8.32
2023-02-24T14:21:34.871Z,8.00
2023-02-24T14:24:05.261Z,8.23
2023-02-24T14:26:41.868Z,8.07
2023-02-24T14:29:08.907Z,8.05
2023-02-24T14:31:38.633Z,8.55
2023-02-24T14:34:16.264Z,9.32
2023-02-24T14:36:45.248Z,8.27
2023-02-24T14:39:22.138Z,8.43
2023-02-24T14:41:50.629Z,9.70
2023-02-24T14:44:26.505Z,7.25
2023-02-24T14:47:02.789Z,6.57
2023-02-24T14:49:33.498Z,8.10
2023-02-24T14:52:02.580Z,7.85
2023-02-24T14:54:48.434Z,8.82
2023-02-24T14:57:22.201Z,7.05
2023-02-24T14:59:52.879Z,7.43
2023-02-24T15:02:25.539Z,11.07
2023-02-24T15:04:54.507Z,10.07
2023-02-24T15:07:29.776Z,11.25
2023-02-24T15:09:57.399Z,10.40
2023-02-24T15:12:35.904Z,11.93
2023-02-24T15:15:09.158Z,10.98
2023-02-24T15:17:41.020Z,10.50
2023-02-24T15:20:26.135Z,10.38
2023-02-24T15:22:52.653Z,10.32
2023-02-24T15:25:28.122Z,10.55
2023-02-24T15:28:03.564Z,7.63
2023-02-24T15:30:39.817Z,7.18
2023-02-24T15:33:29.101Z,6.95
2023-02-24T15:35:58.994Z,4.28
2023-02-24T15:38:35.136Z,4.30
2023-02-24T15:41:04.289Z,4.25
2023-02-24T15:43:32.031Z,3.88
2023-02-24T15:45:58.527Z,4.38
2023-02-24T15:48:31.564Z,3.83
2023-02-24T15:51:05.436Z,3.80
2023-02-24T15:53:34.187Z,4.40
2023-02-24T15:56:00.786Z,4.70
2023-02-24T15:58:30.588Z,4.95
2023-02-24T16:00:57.142Z,3.63
2023-02-24T16:03:23.586Z,4.25
2023-02-24T16:05:49.988Z,4.28
2023-02-24T16:08:19.202Z,3.83
2023-02-24T16:10:46.495Z,3.65
2023-02-24T16:13:20.311Z,3.60
2023-02-24T16:15:46.779Z,4.85
2023-02-24T16:18:21.931Z,3.38
2023-02-24T16:20:54.866Z,3.63
2023-02-24T16:23:22.478Z,3.25
2023-02-24T16:25:51.470Z,3.15
2023-02-24T16:28:20.279Z,3.25
2023-02-24T16:30:49.910Z,3.50
2023-02-24T16:33:18.436Z,3.83
2023-02-24T16:35:45.444Z,3.90
2023-02-24T16:38:16.894Z,3.10
2023-02-24T16:40:45.333Z,3.42
2023-02-24T16:43:13.418Z,3.72
2023-02-24T16:45:43.478Z,6.45
2023-02-24T16:48:19.336Z,5.72
2023-02-24T16:50:45.965Z,5.03
2023-02-24T16:53:20.167Z,4.70
2023-02-24T16:55:47.204Z,6.15
2023-02-24T16:58:14.630Z,4.03
2023-02-24T17:00:46.186Z,4.15
2023-02-24T17:03:16.608Z,6.60
2023-02-24T17:05:44.340Z,8.65
2023-02-24T17:08:11.560Z,23.60
2023-02-24T17:10:39.930Z,19.40
2023-02-24T17:13:06.861Z,8.77
2023-02-24T17:15:36.465Z,4.45
2023-02-24T17:18:02.948Z,3.83
2023-02-24T17:20:29.706Z,4.32
2023-02-24T17:22:56.283Z,4.18
2023-02-24T17:25:25.830Z,3.38
2023-02-24T17:27:54.201Z,4.07
2023-02-24T17:30:24.190Z,3.70
2023-02-24T17:32:50.946Z,4.43
2023-02-24T17:35:20.484Z,4.72
2023-02-24T17:37:47.075Z,4.35
2023-02-24T17:40:14.248Z,4.50
2023-02-24T17:42:41.264Z,4.47
2023-02-24T17:45:08.671Z,3.88
2023-02-24T17:47:35.520Z,3.20
2023-02-24T17:50:02.898Z,3.83
2023-02-24T17:52:31.610Z,3.45
2023-02-24T17:54:58.420Z,4.15
2023-02-24T17:57:27.093Z,3.67
2023-02-24T17:59:55.705Z,4.43
2023-02-24T18:02:22.420Z,5.85
2023-02-24T18:04:49.703Z,4.82
2023-02-24T18:07:16.421Z,5.22
2023-02-24T18:09:42.777Z,4.60
2023-02-24T18:12:09.196Z,4.57
2023-02-24T18:14:35.973Z,5.20
2023-02-24T18:17:04.948Z,5.10
2023-02-24T18:19:31.400Z,4.50
2023-02-24T18:21:58.006Z,3.45
2023-02-24T18:24:24.430Z,4.28
2023-02-24T18:26:50.862Z,5.47
2023-02-24T18:29:17.318Z,4.80
2023-02-24T18:31:43.885Z,3.97
2023-02-24T18:34:10.456Z,3.78
2023-02-24T18:36:36.986Z,3.58
2023-02-24T18:39:03.952Z,3.33
2023-02-24T18:41:30.818Z,3.17
2023-02-24T18:43:59.083Z,2.83
2023-02-24T18:46:26.720Z,3.78
2023-02-24T18:48:56.438Z,2.83
2023-02-24T18:51:29.182Z,3.03
2023-02-24T18:53:58.169Z,2.40
2023-02-24T18:56:29.483Z,2.88
2023-02-24T18:58:58.164Z,2.23
2023-02-24T19:01:34.020Z,2.80
2023-02-24T19:04:01.062Z,2.50
2023-02-24T19:06:29.594Z,2.60
2023-02-24T19:09:16.630Z,2.50
2023-02-24T19:11:43.211Z,1.88
2023-02-24T19:14:13.386Z,2.05
2023-02-24T19:16:40.442Z,1.77
2023-02-24T19:19:06.986Z,1.67
2023-02-24T19:21:34.596Z,1.83
2023-02-24T19:24:08.343Z,1.88
2023-02-24T19:26:34.973Z,1.20
2023-02-24T19:29:01.669Z,1.45
2023-02-24T19:31:32.012Z,1.33
2023-02-24T19:34:01.244Z,1.45
2023-02-24T19:36:29.397Z,1.15
2023-02-24T19:38:56.166Z,1.33
2023-02-24T19:41:23.199Z,1.25
2023-02-24T19:43:49.889Z,1.00
2023-02-24T19:46:17.649Z,1.48
2023-02-24T19:49:07.268Z,2.30
2023-02-24T19:51:33.737Z,1.58
2023-02-24T19:54:05.794Z,1.65
2023-02-24T19:56:35.727Z,1.38
2023-02-24T19:59:07.729Z,1.42
2023-02-24T20:01:34.388Z,2.30
2023-02-24T20:04:21.628Z,3.63
2023-02-24T20:06:48.803Z,4.72
2023-02-24T20:09:21.703Z,2.70
2023-02-24T20:11:52.111Z,6.35
2023-02-24T20:14:21.731Z,3.70
2023-02-24T20:16:48.623Z,7.55
2023-02-24T20:19:19.987Z,4.90
2023-02-24T20:21:47.654Z,5.95
2023-02-24T20:24:15.880Z,7.35
2023-02-24T20:26:47.332Z,5.40
2023-02-24T20:29:15.454Z,4.57
2023-02-24T20:31:42.682Z,2.95
2023-02-24T20:34:11.144Z,2.90
2023-02-24T20:36:37.539Z,2.10
2023-02-24T20:39:06.671Z,2.40
2023-02-24T20:41:33.751Z,2.50
2023-02-24T20:44:00.412Z,2.25
2023-02-24T20:46:30.138Z,3.20
2023-02-24T20:49:01.879Z,2.70
2023-02-24T20:51:30.039Z,2.30
2023-02-24T20:53:58.598Z,2.58
2023-02-24T20:56:29.873Z,3.17
2023-02-24T20:59:01.754Z,2.90
2023-02-24T21:01:30.506Z,3.47
2023-02-24T21:03:57.136Z,2.80
2023-02-24T21:06:24.877Z,2.78
2023-02-24T21:08:53.456Z,4.03
2023-02-24T21:11:21.176Z,2.80
2023-02-24T21:13:49.889Z,2.67
2023-02-24T21:16:18.594Z,2.58
2023-02-24T21:18:47.805Z,3.30
2023-02-24T21:21:15.355Z,2.83
2023-02-24T21:23:43.415Z,2.83
2023-02-24T21:26:11.420Z,2.28
2023-02-24T21:28:40.512Z,3.17
2023-02-24T21:31:15.300Z,3.47
2023-02-24T21:33:42.578Z,4.10
2023-02-24T21:36:13.546Z,3.50
2023-02-24T21:38:41.789Z,3.35
2023-02-24T21:41:14.834Z,2.65
2023-02-24T21:43:44.335Z,3.25
2023-02-24T21:46:13.242Z,3.67
2023-02-24T21:48:41.959Z,2.80
2023-02-24T21:51:13.651Z,3.17
2023-02-24T21:53:43.431Z,2.58
2023-02-24T21:56:18.920Z,3.10
2023-02-24T21:58:54.416Z,2.35
2023-02-24T22:01:25.474Z,3.03
2023-02-24T22:04:02.826Z,2.67
2023-02-24T22:06:32.037Z,2.83
2023-02-24T22:09:03.700Z,3.25
2023-02-24T22:11:37.367Z,2.97
2023-02-24T22:14:07.052Z,3.30
2023-02-24T22:16:33.639Z,3.33
2023-02-24T22:19:00.263Z,3.10
2023-02-24T22:21:28.775Z,2.60
2023-02-24T22:23:57.870Z,3.10
2023-02-24T22:26:28.621Z,3.00
2023-02-24T22:29:01.322Z,3.55
2023-02-24T22:31:30.828Z,3.90
2023-02-24T22:33:58.653Z,3.40
2023-02-24T22:36:30.886Z,3.28
2023-02-24T22:38:59.470Z,3.22
2023-02-24T22:41:31.329Z,3.85
2023-02-24T22:44:01.718Z,3.85
2023-02-24T22:46:34.068Z,3.72
2023-02-24T22:51:34.856Z,3.75
2023-02-24T22:54:01.412Z,3.92
2023-02-24T22:56:31.328Z,3.65
2023-02-24T22:58:58.988Z,3.60
2023-02-24T23:01:31.333Z,3.55
2023-02-24T23:04:05.818Z,3.70
2023-02-24T23:06:33.054Z,4.00
2023-02-24T23:09:07.265Z,4.53
2023-02-24T23:11:39.530Z,4.03
2023-02-24T23:14:23.531Z,3.42
2023-02-24T23:16:55.589Z,4.53
2023-02-24T23:19:22.892Z,3.97
2023-02-24T23:21:53.904Z,3.95
2023-02-24T23:24:23.997Z,4.22
2023-02-24T23:26:53.929Z,3.08
2023-02-24T23:29:30.888Z,2.92
2023-02-24T23:31:58.124Z,3.45
2023-02-24T23:34:27.028Z,2.83
2023-02-24T23:36:55.159Z,3.35
2023-02-24T23:39:24.099Z,3.60
2023-02-24T23:41:57.066Z,4.18
2023-02-24T23:44:30.031Z,2.95
2023-02-24T23:46:58.205Z,2.88
2023-02-24T23:49:24.824Z,3.78
2023-02-24T23:51:51.510Z,2.97
2023-02-24T23:54:23.288Z,2.58
2023-02-24T23:56:50.043Z,2.20
2023-02-24T23:59:16.990Z,2.05
